Aviation Digital Data Service (ADDS)

Output produced by METARs form (0531 UTC 19 February 2019)
found at http://www.aviationweather.gov/metar/data/
 
METAR text: YPPH 190500Z 26014KT CAVOK 32/12 Q1011 NOSIG
Conditions at: YPPH (PERTH INTL/BELMO, AU) observed 0500 UTC 19 February 2019
Temperature: 32.0°C (90°F)
Dewpoint: 12.0°C (54°F) [RH = 30%]
Pressure (altimeter): 29.85 inches Hg (1011.0 mb)
Winds: from the W (260 degrees) at 16 MPH (14 knots; 7.2 m/s)
Visibility: 6 or more miles (10+ km)
Ceiling: ceiling and visibility are OK
Clouds: unknown
Weather: no significant weather observed at this time

METAR text: YPPH 190430Z 17009KT 150V250 CAVOK 33/08 Q1011 FM0530 23015KT CAVOK
Conditions at: YPPH (PERTH INTL/BELMO, AU) observed 0430 UTC 19 February 2019
Temperature: 33.0°C (91°F)
Dewpoint: 8.0°C (46°F) [RH = 21%]
Pressure (altimeter): 29.85 inches Hg (1011.0 mb)
Winds: from the S (170 degrees) at 10 MPH (9 knots; 4.6 m/s)
Visibility: 6 or more miles (10+ km)
Ceiling: ceiling and visibility are OK
Clouds: unknown
Weather: no significant weather observed at this time

METAR text: YPPH 190400Z 22008KT 200V270 CAVOK 33/07 Q1012 FM0600 23015KT CAVOK
Conditions at: YPPH (PERTH INTL/BELMO, AU) observed 0400 UTC 19 February 2019
Temperature: 33.0°C (91°F)
Dewpoint: 7.0°C (45°F) [RH = 20%]
Pressure (altimeter): 29.88 inches Hg (1012.0 mb)
Winds: from the SW (220 degrees) at 9 MPH (8 knots; 4.1 m/s)
Visibility: 6 or more miles (10+ km)
Ceiling: ceiling and visibility are OK
Clouds: unknown
Weather: no significant weather observed at this time

METAR text: YPPH 190330Z 18006KT 090V210 CAVOK 31/09 Q1012 FM0330 VRB05KT CAVOK FM0600 23015KT CAVOK
Conditions at: YPPH (PERTH INTL/BELMO, AU) observed 0330 UTC 19 February 2019
Temperature: 31.0°C (88°F)
Dewpoint: 9.0°C (48°F) [RH = 26%]
Pressure (altimeter): 29.88 inches Hg (1012.0 mb)
Winds: from the S (180 degrees) at 7 MPH (6 knots; 3.1 m/s)
Visibility: 6 or more miles (10+ km)
Ceiling: ceiling and visibility are OK
Clouds: unknown
Weather: no significant weather observed at this time

METAR text: YPPH 190300Z 27004KT CAVOK 31/10 Q1012 FM0315 VRB05KT CAVOK
Conditions at: YPPH (PERTH INTL/BELMO, AU) observed 0300 UTC 19 February 2019
Temperature: 31.0°C (88°F)
Dewpoint: 10.0°C (50°F) [RH = 27%]
Pressure (altimeter): 29.88 inches Hg (1012.0 mb)
Winds: from the W (270 degrees) at 5 MPH (4 knots; 2.1 m/s)
Visibility: 6 or more miles (10+ km)
Ceiling: ceiling and visibility are OK
Clouds: unknown
Weather: no significant weather observed at this time

METAR text: YPPH 190230Z 16005KT 120V270 CAVOK 29/10 Q1013 NOSIG
Conditions at: YPPH (PERTH INTL/BELMO, AU) observed 0230 UTC 19 February 2019
Temperature: 29.0°C (84°F)
Dewpoint: 10.0°C (50°F) [RH = 31%]
Pressure (altimeter): 29.91 inches Hg (1013.0 mb)
Winds: from the SSE (160 degrees) at 6 MPH (5 knots; 2.6 m/s)
Visibility: 6 or more miles (10+ km)
Ceiling: ceiling and visibility are OK
Clouds: unknown
Weather: no significant weather observed at this time

METAR text: YPPH 190200Z 11005KT 090V150 CAVOK 28/09 Q1013 NOSIG
Conditions at: YPPH (PERTH INTL/BELMO, AU) observed 0200 UTC 19 February 2019
Temperature: 28.0°C (82°F)
Dewpoint: 9.0°C (48°F) [RH = 30%]
Pressure (altimeter): 29.91 inches Hg (1013.0 mb)
Winds: from the ESE (110 degrees) at 6 MPH (5 knots; 2.6 m/s)
Visibility: 6 or more miles (10+ km)
Ceiling: ceiling and visibility are OK
Clouds: unknown
Weather: no significant weather observed at this time

METAR text: YPPH 190130Z 07007KT CAVOK 27/09 Q1013 NOSIG
Conditions at: YPPH (PERTH INTL/BELMO, AU) observed 0130 UTC 19 February 2019
Temperature: 27.0°C (81°F)
Dewpoint: 9.0°C (48°F) [RH = 32%]
Pressure (altimeter): 29.91 inches Hg (1013.0 mb)
Winds: from the ENE (70 degrees) at 8 MPH (7 knots; 3.6 m/s)
Visibility: 6 or more miles (10+ km)
Ceiling: ceiling and visibility are OK
Clouds: unknown
Weather: no significant weather observed at this time

METAR text: YPPH 190100Z 09006KT 050V130 CAVOK 25/10 Q1013
Conditions at: YPPH (PERTH INTL/BELMO, AU) observed 0100 UTC 19 February 2019
Temperature: 25.0°C (77°F)
Dewpoint: 10.0°C (50°F) [RH = 39%]
Pressure (altimeter): 29.91 inches Hg (1013.0 mb)
Winds: from the E (90 degrees) at 7 MPH (6 knots; 3.1 m/s)
Visibility: 6 or more miles (10+ km)
Ceiling: ceiling and visibility are OK
Clouds: unknown
Weather: no significant weather observed at this time

METAR text: YPPH 190030Z 08009KT CAVOK 24/09 Q1013 NOSIG
Conditions at: YPPH (PERTH INTL/BELMO, AU) observed 0030 UTC 19 February 2019
Temperature: 24.0°C (75°F)
Dewpoint: 9.0°C (48°F) [RH = 38%]
Pressure (altimeter): 29.91 inches Hg (1013.0 mb)
Winds: from the E (80 degrees) at 10 MPH (9 knots; 4.6 m/s)
Visibility: 6 or more miles (10+ km)
Ceiling: ceiling and visibility are OK
Clouds: unknown
Weather: no significant weather observed at this time

METAR text: YPPH 190000Z 08007KT CAVOK 23/09 Q1013 NOSIG
Conditions at: YPPH (PERTH INTL/BELMO, AU) observed 0000 UTC 19 February 2019
Temperature: 23.0°C (73°F)
Dewpoint: 9.0°C (48°F) [RH = 41%]
Pressure (altimeter): 29.91 inches Hg (1013.0 mb)
Winds: from the E (80 degrees) at 8 MPH (7 knots; 3.6 m/s)
Visibility: 6 or more miles (10+ km)
Ceiling: ceiling and visibility are OK
Clouds: unknown
Weather: no significant weather observed at this time

METAR text: YPPH 182330Z 11005KT CAVOK 22/10 Q1013 NOSIG
Conditions at: YPPH (PERTH INTL/BELMO, AU) observed 2330 UTC 18 February 2019
Temperature: 22.0°C (72°F)
Dewpoint: 10.0°C (50°F) [RH = 46%]
Pressure (altimeter): 29.91 inches Hg (1013.0 mb)
Winds: from the ESE (110 degrees) at 6 MPH (5 knots; 2.6 m/s)
Visibility: 6 or more miles (10+ km)
Ceiling: ceiling and visibility are OK
Clouds: unknown
Weather: no significant weather observed at this time

METAR text: YPPH 182300Z 16006KT 140V220 CAVOK 21/10 Q1013 NOSIG
Conditions at: YPPH (PERTH INTL/BELMO, AU) observed 2300 UTC 18 February 2019
Temperature: 21.0°C (70°F)
Dewpoint: 10.0°C (50°F) [RH = 49%]
Pressure (altimeter): 29.91 inches Hg (1013.0 mb)
Winds: from the SSE (160 degrees) at 7 MPH (6 knots; 3.1 m/s)
Visibility: 6 or more miles (10+ km)
Ceiling: ceiling and visibility are OK
Clouds: unknown
Weather: no significant weather observed at this time

METAR text: YPPH 182230Z 07005KT CAVOK 20/09 Q1013 NOSIG
Conditions at: YPPH (PERTH INTL/BELMO, AU) observed 2230 UTC 18 February 2019
Temperature: 20.0°C (68°F)
Dewpoint: 9.0°C (48°F) [RH = 49%]
Pressure (altimeter): 29.91 inches Hg (1013.0 mb)
Winds: from the ENE (70 degrees) at 6 MPH (5 knots; 2.6 m/s)
Visibility: 6 or more miles (10+ km)
Ceiling: ceiling and visibility are OK
Clouds: unknown
Weather: no significant weather observed at this time

METAR text: YPPH 182200Z 07005KT CAVOK 20/09 Q1012 NOSIG
Conditions at: YPPH (PERTH INTL/BELMO, AU) observed 2200 UTC 18 February 2019
Temperature: 20.0°C (68°F)
Dewpoint: 9.0°C (48°F) [RH = 49%]
Pressure (altimeter): 29.88 inches Hg (1012.0 mb)
Winds: from the ENE (70 degrees) at 6 MPH (5 knots; 2.6 m/s)
Visibility: 6 or more miles (10+ km)
Ceiling: ceiling and visibility are OK
Clouds: unknown
Weather: no significant weather observed at this time

METAR text: YPPH 182130Z 09004KT CAVOK 20/09 Q1012 NOSIG
Conditions at: YPPH (PERTH INTL/BELMO, AU) observed 2130 UTC 18 February 2019
Temperature: 20.0°C (68°F)
Dewpoint: 9.0°C (48°F) [RH = 49%]
Pressure (altimeter): 29.88 inches Hg (1012.0 mb)
Winds: from the E (90 degrees) at 5 MPH (4 knots; 2.1 m/s)
Visibility: 6 or more miles (10+ km)
Ceiling: ceiling and visibility are OK
Clouds: unknown
Weather: no significant weather observed at this time

METAR text: YPPH 182100Z 05001KT CAVOK 18/10 Q1012 NOSIG
Conditions at: YPPH (PERTH INTL/BELMO, AU) observed 2100 UTC 18 February 2019
Temperature: 18.0°C (64°F)
Dewpoint: 10.0°C (50°F) [RH = 59%]
Pressure (altimeter): 29.88 inches Hg (1012.0 mb)
Winds: from the NE (50 degrees) at 1 MPH (1 knots; 0.5 m/s)
Visibility: 6 or more miles (10+ km)
Ceiling: ceiling and visibility are OK
Clouds: unknown
Weather: no significant weather observed at this time

METAR text: YPPH 182030Z 35004KT CAVOK 16/11 Q1012 NOSIG
Conditions at: YPPH (PERTH INTL/BELMO, AU) observed 2030 UTC 18 February 2019
Temperature: 16.0°C (61°F)
Dewpoint: 11.0°C (52°F) [RH = 72%]
Pressure (altimeter): 29.88 inches Hg (1012.0 mb)
Winds: from the N (350 degrees) at 5 MPH (4 knots; 2.1 m/s)
Visibility: 6 or more miles (10+ km)
Ceiling: ceiling and visibility are OK
Clouds: unknown
Weather: no significant weather observed at this time

METAR text: YPPH 182000Z 28003KT CAVOK 15/12 Q1012 NOSIG
Conditions at: YPPH (PERTH INTL/BELMO, AU) observed 2000 UTC 18 February 2019
Temperature: 15.0°C (59°F)
Dewpoint: 12.0°C (54°F) [RH = 82%]
Pressure (altimeter): 29.88 inches Hg (1012.0 mb)
Winds: from the W (280 degrees) at 3 MPH (3 knots; 1.5 m/s)
Visibility: 6 or more miles (10+ km)
Ceiling: ceiling and visibility are OK
Clouds: unknown
Weather: no significant weather observed at this time

METAR text: YPPH 181930Z 26005KT CAVOK 16/12 Q1012 NOSIG
Conditions at: YPPH (PERTH INTL/BELMO, AU) observed 1930 UTC 18 February 2019
Temperature: 16.0°C (61°F)
Dewpoint: 12.0°C (54°F) [RH = 77%]
Pressure (altimeter): 29.88 inches Hg (1012.0 mb)
Winds: from the W (260 degrees) at 6 MPH (5 knots; 2.6 m/s)
Visibility: 6 or more miles (10+ km)
Ceiling: ceiling and visibility are OK
Clouds: unknown
Weather: no significant weather observed at this time

METAR text: YPPH 181900Z 28004KT CAVOK 15/12 Q1011 NOSIG
Conditions at: YPPH (PERTH INTL/BELMO, AU) observed 1900 UTC 18 February 2019
Temperature: 15.0°C (59°F)
Dewpoint: 12.0°C (54°F) [RH = 82%]
Pressure (altimeter): 29.85 inches Hg (1011.0 mb)
Winds: from the W (280 degrees) at 5 MPH (4 knots; 2.1 m/s)
Visibility: 6 or more miles (10+ km)
Ceiling: ceiling and visibility are OK
Clouds: unknown
Weather: no significant weather observed at this time

METAR text: YPPH 181830Z 00000KT CAVOK 15/12 Q1012 NOSIG
Conditions at: YPPH (PERTH INTL/BELMO, AU) observed 1830 UTC 18 February 2019
Temperature: 15.0°C (59°F)
Dewpoint: 12.0°C (54°F) [RH = 82%]
Pressure (altimeter): 29.88 inches Hg (1012.0 mb)
Winds: calm
Visibility: 6 or more miles (10+ km)
Ceiling: ceiling and visibility are OK
Clouds: unknown
Weather: no significant weather observed at this time

METAR text: YPPH 181800Z 07005KT CAVOK 16/13 Q1012
Conditions at: YPPH (PERTH INTL/BELMO, AU) observed 1800 UTC 18 February 2019
Temperature: 16.0°C (61°F)
Dewpoint: 13.0°C (55°F) [RH = 82%]
Pressure (altimeter): 29.88 inches Hg (1012.0 mb)
Winds: from the ENE (70 degrees) at 6 MPH (5 knots; 2.6 m/s)
Visibility: 6 or more miles (10+ km)
Ceiling: ceiling and visibility are OK
Clouds: unknown
Weather: no significant weather observed at this time

METAR text: YPPH 181730Z 12004KT CAVOK 16/12 Q1012 NOSIG
Conditions at: YPPH (PERTH INTL/BELMO, AU) observed 1730 UTC 18 February 2019
Temperature: 16.0°C (61°F)
Dewpoint: 12.0°C (54°F) [RH = 77%]
Pressure (altimeter): 29.88 inches Hg (1012.0 mb)
Winds: from the ESE (120 degrees) at 5 MPH (4 knots; 2.1 m/s)
Visibility: 6 or more miles (10+ km)
Ceiling: ceiling and visibility are OK
Clouds: unknown
Weather: no significant weather observed at this time

METAR text: YPPH 181700Z 19006KT CAVOK 17/12 Q1012 NOSIG
Conditions at: YPPH (PERTH INTL/BELMO, AU) observed 1700 UTC 18 February 2019
Temperature: 17.0°C (63°F)
Dewpoint: 12.0°C (54°F) [RH = 72%]
Pressure (altimeter): 29.88 inches Hg (1012.0 mb)
Winds: from the S (190 degrees) at 7 MPH (6 knots; 3.1 m/s)
Visibility: 6 or more miles (10+ km)
Ceiling: ceiling and visibility are OK
Clouds: unknown
Weather: no significant weather observed at this time

METAR text: YPPH 181630Z 21006KT CAVOK 18/12 Q1012 NOSIG
Conditions at: YPPH (PERTH INTL/BELMO, AU) observed 1630 UTC 18 February 2019
Temperature: 18.0°C (64°F)
Dewpoint: 12.0°C (54°F) [RH = 68%]
Pressure (altimeter): 29.88 inches Hg (1012.0 mb)
Winds: from the SSW (210 degrees) at 7 MPH (6 knots; 3.1 m/s)
Visibility: 6 or more miles (10+ km)
Ceiling: ceiling and visibility are OK
Clouds: unknown
Weather: no significant weather observed at this time

METAR text: YPPH 181600Z 20007KT CAVOK 20/12 Q1012 NOSIG
Conditions at: YPPH (PERTH INTL/BELMO, AU) observed 1600 UTC 18 February 2019
Temperature: 20.0°C (68°F)
Dewpoint: 12.0°C (54°F) [RH = 60%]
Pressure (altimeter): 29.88 inches Hg (1012.0 mb)
Winds: from the SSW (200 degrees) at 8 MPH (7 knots; 3.6 m/s)
Visibility: 6 or more miles (10+ km)
Ceiling: ceiling and visibility are OK
Clouds: unknown
Weather: no significant weather observed at this time

METAR text: YPPH 181530Z 21007KT CAVOK 21/12 Q1012 NOSIG
Conditions at: YPPH (PERTH INTL/BELMO, AU) observed 1530 UTC 18 February 2019
Temperature: 21.0°C (70°F)
Dewpoint: 12.0°C (54°F) [RH = 56%]
Pressure (altimeter): 29.88 inches Hg (1012.0 mb)
Winds: from the SSW (210 degrees) at 8 MPH (7 knots; 3.6 m/s)
Visibility: 6 or more miles (10+ km)
Ceiling: ceiling and visibility are OK
Clouds: unknown
Weather: no significant weather observed at this time

METAR text: YPPH 181500Z 19009KT CAVOK 21/12 Q1013
Conditions at: YPPH (PERTH INTL/BELMO, AU) observed 1500 UTC 18 February 2019
Temperature: 21.0°C (70°F)
Dewpoint: 12.0°C (54°F) [RH = 56%]
Pressure (altimeter): 29.91 inches Hg (1013.0 mb)
Winds: from the S (190 degrees) at 10 MPH (9 knots; 4.6 m/s)
Visibility: 6 or more miles (10+ km)
Ceiling: ceiling and visibility are OK
Clouds: unknown
Weather: no significant weather observed at this time

METAR text: YPPH 181430Z 21007KT CAVOK 22/12 Q1013 NOSIG
Conditions at: YPPH (PERTH INTL/BELMO, AU) observed 1430 UTC 18 February 2019
Temperature: 22.0°C (72°F)
Dewpoint: 12.0°C (54°F) [RH = 53%]
Pressure (altimeter): 29.91 inches Hg (1013.0 mb)
Winds: from the SSW (210 degrees) at 8 MPH (7 knots; 3.6 m/s)
Visibility: 6 or more miles (10+ km)
Ceiling: ceiling and visibility are OK
Clouds: unknown
Weather: no significant weather observed at this time

METAR text: YPPH 181400Z 20009KT CAVOK 22/13 Q1013 NOSIG
Conditions at: YPPH (PERTH INTL/BELMO, AU) observed 1400 UTC 18 February 2019
Temperature: 22.0°C (72°F)
Dewpoint: 13.0°C (55°F) [RH = 57%]
Pressure (altimeter): 29.91 inches Hg (1013.0 mb)
Winds: from the SSW (200 degrees) at 10 MPH (9 knots; 4.6 m/s)
Visibility: 6 or more miles (10+ km)
Ceiling: ceiling and visibility are OK
Clouds: unknown
Weather: no significant weather observed at this time

METAR text: YPPH 181330Z 20012KT CAVOK 23/13 Q1013 NOSIG
Conditions at: YPPH (PERTH INTL/BELMO, AU) observed 1330 UTC 18 February 2019
Temperature: 23.0°C (73°F)
Dewpoint: 13.0°C (55°F) [RH = 53%]
Pressure (altimeter): 29.91 inches Hg (1013.0 mb)
Winds: from the SSW (200 degrees) at 14 MPH (12 knots; 6.2 m/s)
Visibility: 6 or more miles (10+ km)
Ceiling: ceiling and visibility are OK
Clouds: unknown
Weather: no significant weather observed at this time

METAR text: YPPH 181300Z 20012KT CAVOK 23/13 Q1013
Conditions at: YPPH (PERTH INTL/BELMO, AU) observed 1300 UTC 18 February 2019
Temperature: 23.0°C (73°F)
Dewpoint: 13.0°C (55°F) [RH = 53%]
Pressure (altimeter): 29.91 inches Hg (1013.0 mb)
Winds: from the SSW (200 degrees) at 14 MPH (12 knots; 6.2 m/s)
Visibility: 6 or more miles (10+ km)
Ceiling: ceiling and visibility are OK
Clouds: unknown
Weather: no significant weather observed at this time

METAR text: YPPH 181230Z 21009KT CAVOK 24/12 Q1013 NOSIG
Conditions at: YPPH (PERTH INTL/BELMO, AU) observed 1230 UTC 18 February 2019
Temperature: 24.0°C (75°F)
Dewpoint: 12.0°C (54°F) [RH = 47%]
Pressure (altimeter): 29.91 inches Hg (1013.0 mb)
Winds: from the SSW (210 degrees) at 10 MPH (9 knots; 4.6 m/s)
Visibility: 6 or more miles (10+ km)
Ceiling: ceiling and visibility are OK
Clouds: unknown
Weather: no significant weather observed at this time

METAR text: YPPH 181200Z 21009KT CAVOK 24/12 Q1012
Conditions at: YPPH (PERTH INTL/BELMO, AU) observed 1200 UTC 18 February 2019
Temperature: 24.0°C (75°F)
Dewpoint: 12.0°C (54°F) [RH = 47%]
Pressure (altimeter): 29.88 inches Hg (1012.0 mb)
Winds: from the SSW (210 degrees) at 10 MPH (9 knots; 4.6 m/s)
Visibility: 6 or more miles (10+ km)
Ceiling: ceiling and visibility are OK
Clouds: unknown
Weather: no significant weather observed at this time

METAR text: YPPH 181130Z 21010KT CAVOK 25/10 Q1012 NOSIG
Conditions at: YPPH (PERTH INTL/BELMO, AU) observed 1130 UTC 18 February 2019
Temperature: 25.0°C (77°F)
Dewpoint: 10.0°C (50°F) [RH = 39%]
Pressure (altimeter): 29.88 inches Hg (1012.0 mb)
Winds: from the SSW (210 degrees) at 12 MPH (10 knots; 5.1 m/s)
Visibility: 6 or more miles (10+ km)
Ceiling: ceiling and visibility are OK
Clouds: unknown
Weather: no significant weather observed at this time

METAR text: YPPH 181100Z 22013KT CAVOK 26/10 Q1012 NOSIG
Conditions at: YPPH (PERTH INTL/BELMO, AU) observed 1100 UTC 18 February 2019
Temperature: 26.0°C (79°F)
Dewpoint: 10.0°C (50°F) [RH = 37%]
Pressure (altimeter): 29.88 inches Hg (1012.0 mb)
Winds: from the SW (220 degrees) at 15 MPH (13 knots; 6.7 m/s)
Visibility: 6 or more miles (10+ km)
Ceiling: ceiling and visibility are OK
Clouds: unknown
Weather: no significant weather observed at this time

METAR text: YPPH 181030Z 23010KT CAVOK 28/11 Q1012 NOSIG
Conditions at: YPPH (PERTH INTL/BELMO, AU) observed 1030 UTC 18 February 2019
Temperature: 28.0°C (82°F)
Dewpoint: 11.0°C (52°F) [RH = 35%]
Pressure (altimeter): 29.88 inches Hg (1012.0 mb)
Winds: from the SW (230 degrees) at 12 MPH (10 knots; 5.1 m/s)
Visibility: 6 or more miles (10+ km)
Ceiling: ceiling and visibility are OK
Clouds: unknown
Weather: no significant weather observed at this time

METAR text: YPPH 181000Z 23012KT CAVOK 28/12 Q1012 NOSIG
Conditions at: YPPH (PERTH INTL/BELMO, AU) observed 1000 UTC 18 February 2019
Temperature: 28.0°C (82°F)
Dewpoint: 12.0°C (54°F) [RH = 37%]
Pressure (altimeter): 29.88 inches Hg (1012.0 mb)
Winds: from the SW (230 degrees) at 14 MPH (12 knots; 6.2 m/s)
Visibility: 6 or more miles (10+ km)
Ceiling: ceiling and visibility are OK
Clouds: unknown
Weather: no significant weather observed at this time

METAR text: YPPH 180930Z 22013KT CAVOK 28/11 Q1012 NOSIG
Conditions at: YPPH (PERTH INTL/BELMO, AU) observed 0930 UTC 18 February 2019
Temperature: 28.0°C (82°F)
Dewpoint: 11.0°C (52°F) [RH = 35%]
Pressure (altimeter): 29.88 inches Hg (1012.0 mb)
Winds: from the SW (220 degrees) at 15 MPH (13 knots; 6.7 m/s)
Visibility: 6 or more miles (10+ km)
Ceiling: ceiling and visibility are OK
Clouds: unknown
Weather: no significant weather observed at this time

METAR text: YPPH 180900Z 22015KT CAVOK 29/12 Q1012
Conditions at: YPPH (PERTH INTL/BELMO, AU) observed 0900 UTC 18 February 2019
Temperature: 29.0°C (84°F)
Dewpoint: 12.0°C (54°F) [RH = 35%]
Pressure (altimeter): 29.88 inches Hg (1012.0 mb)
Winds: from the SW (220 degrees) at 17 MPH (15 knots; 7.7 m/s)
Visibility: 6 or more miles (10+ km)
Ceiling: ceiling and visibility are OK
Clouds: unknown
Weather: no significant weather observed at this time

METAR text: YPPH 180830Z 22014KT CAVOK 30/12 Q1012 NOSIG
Conditions at: YPPH (PERTH INTL/BELMO, AU) observed 0830 UTC 18 February 2019
Temperature: 30.0°C (86°F)
Dewpoint: 12.0°C (54°F) [RH = 33%]
Pressure (altimeter): 29.88 inches Hg (1012.0 mb)
Winds: from the SW (220 degrees) at 16 MPH (14 knots; 7.2 m/s)
Visibility: 6 or more miles (10+ km)
Ceiling: ceiling and visibility are OK
Clouds: unknown
Weather: no significant weather observed at this time

METAR text: YPPH 180800Z 23013KT CAVOK 30/12 Q1012 NOSIG
Conditions at: YPPH (PERTH INTL/BELMO, AU) observed 0800 UTC 18 February 2019
Temperature: 30.0°C (86°F)
Dewpoint: 12.0°C (54°F) [RH = 33%]
Pressure (altimeter): 29.88 inches Hg (1012.0 mb)
Winds: from the SW (230 degrees) at 15 MPH (13 knots; 6.7 m/s)
Visibility: 6 or more miles (10+ km)
Ceiling: ceiling and visibility are OK
Clouds: unknown
Weather: no significant weather observed at this time

METAR text: YPPH 180730Z 23014KT CAVOK 31/12 Q1012 NOSIG
Conditions at: YPPH (PERTH INTL/BELMO, AU) observed 0730 UTC 18 February 2019
Temperature: 31.0°C (88°F)
Dewpoint: 12.0°C (54°F) [RH = 31%]
Pressure (altimeter): 29.88 inches Hg (1012.0 mb)
Winds: from the SW (230 degrees) at 16 MPH (14 knots; 7.2 m/s)
Visibility: 6 or more miles (10+ km)
Ceiling: ceiling and visibility are OK
Clouds: unknown
Weather: no significant weather observed at this time

METAR text: YPPH 180700Z 23013KT CAVOK 31/12 Q1012 NOSIG
Conditions at: YPPH (PERTH INTL/BELMO, AU) observed 0700 UTC 18 February 2019
Temperature: 31.0°C (88°F)
Dewpoint: 12.0°C (54°F) [RH = 31%]
Pressure (altimeter): 29.88 inches Hg (1012.0 mb)
Winds: from the SW (230 degrees) at 15 MPH (13 knots; 6.7 m/s)
Visibility: 6 or more miles (10+ km)
Ceiling: ceiling and visibility are OK
Clouds: unknown
Weather: no significant weather observed at this time

METAR text: YPPH 180630Z 24012KT CAVOK 31/11 Q1012 NOSIG
Conditions at: YPPH (PERTH INTL/BELMO, AU) observed 0630 UTC 18 February 2019
Temperature: 31.0°C (88°F)
Dewpoint: 11.0°C (52°F) [RH = 29%]
Pressure (altimeter): 29.88 inches Hg (1012.0 mb)
Winds: from the WSW (240 degrees) at 14 MPH (12 knots; 6.2 m/s)
Visibility: 6 or more miles (10+ km)
Ceiling: ceiling and visibility are OK
Clouds: unknown
Weather: no significant weather observed at this time

METAR text: YPPH 180600Z 20008KT 170V250 CAVOK 31/08 Q1012 NOSIG
Conditions at: YPPH (PERTH INTL/BELMO, AU) observed 0600 UTC 18 February 2019
Temperature: 31.0°C (88°F)
Dewpoint: 8.0°C (46°F) [RH = 24%]
Pressure (altimeter): 29.88 inches Hg (1012.0 mb)
Winds: from the SSW (200 degrees) at 9 MPH (8 knots; 4.1 m/s)
Visibility: 6 or more miles (10+ km)
Ceiling: ceiling and visibility are OK
Clouds: unknown
Weather: no significant weather observed at this time

METAR text: YPPH 180530Z 21006KT 170V280 CAVOK 31/08 Q1012 FM0730 23014KT CAVOK
Conditions at: YPPH (PERTH INTL/BELMO, AU) observed 0530 UTC 18 February 2019
Temperature: 31.0°C (88°F)
Dewpoint: 8.0°C (46°F) [RH = 24%]
Pressure (altimeter): 29.88 inches Hg (1012.0 mb)
Winds: from the SSW (210 degrees) at 7 MPH (6 knots; 3.1 m/s)
Visibility: 6 or more miles (10+ km)
Ceiling: ceiling and visibility are OK
Clouds: unknown
Weather: no significant weather observed at this time

METAR text: YPPH 180500Z 33005KT 300V020 CAVOK 30/08 Q1013 FM0730 23014KT CAVOK
Conditions at: YPPH (PERTH INTL/BELMO, AU) observed 0500 UTC 18 February 2019
Temperature: 30.0°C (86°F)
Dewpoint: 8.0°C (46°F) [RH = 25%]
Pressure (altimeter): 29.91 inches Hg (1013.0 mb)
Winds: from the NNW (330 degrees) at 6 MPH (5 knots; 2.6 m/s)
Visibility: 6 or more miles (10+ km)
Ceiling: ceiling and visibility are OK
Clouds: unknown
Weather: no significant weather observed at this time

METAR text: YPPH 180430Z 08005KT 330V140 CAVOK 29/09 Q1013 NOSIG
Conditions at: YPPH (PERTH INTL/BELMO, AU) observed 0430 UTC 18 February 2019
Temperature: 29.0°C (84°F)
Dewpoint: 9.0°C (48°F) [RH = 29%]
Pressure (altimeter): 29.91 inches Hg (1013.0 mb)
Winds: from the E (80 degrees) at 6 MPH (5 knots; 2.6 m/s)
Visibility: 6 or more miles (10+ km)
Ceiling: ceiling and visibility are OK
Clouds: unknown
Weather: no significant weather observed at this time

METAR text: YPPH 180400Z 10007KT 070V130 CAVOK 28/09 Q1013 NOSIG
Conditions at: YPPH (PERTH INTL/BELMO, AU) observed 0400 UTC 18 February 2019
Temperature: 28.0°C (82°F)
Dewpoint: 9.0°C (48°F) [RH = 30%]
Pressure (altimeter): 29.91 inches Hg (1013.0 mb)
Winds: from the E (100 degrees) at 8 MPH (7 knots; 3.6 m/s)
Visibility: 6 or more miles (10+ km)
Ceiling: ceiling and visibility are OK
Clouds: unknown
Weather: no significant weather observed at this time

METAR text: YPPH 180330Z 09009KT 030V120 CAVOK 28/09 Q1014 NOSIG
Conditions at: YPPH (PERTH INTL/BELMO, AU) observed 0330 UTC 18 February 2019
Temperature: 28.0°C (82°F)
Dewpoint: 9.0°C (48°F) [RH = 30%]
Pressure (altimeter): 29.94 inches Hg (1014.0 mb)
Winds: from the E (90 degrees) at 10 MPH (9 knots; 4.6 m/s)
Visibility: 6 or more miles (10+ km)
Ceiling: ceiling and visibility are OK
Clouds: unknown
Weather: no significant weather observed at this time

METAR text: YPPH 180300Z 08009KT CAVOK 27/09 Q1014 NOSIG
Conditions at: YPPH (PERTH INTL/BELMO, AU) observed 0300 UTC 18 February 2019
Temperature: 27.0°C (81°F)
Dewpoint: 9.0°C (48°F) [RH = 32%]
Pressure (altimeter): 29.94 inches Hg (1014.0 mb)
Winds: from the E (80 degrees) at 10 MPH (9 knots; 4.6 m/s)
Visibility: 6 or more miles (10+ km)
Ceiling: ceiling and visibility are OK
Clouds: unknown
Weather: no significant weather observed at this time

METAR text: YPPH 180230Z 08009KT CAVOK 25/10 Q1015 NOSIG
Conditions at: YPPH (PERTH INTL/BELMO, AU) observed 0230 UTC 18 February 2019
Temperature: 25.0°C (77°F)
Dewpoint: 10.0°C (50°F) [RH = 39%]
Pressure (altimeter): 29.97 inches Hg (1015.0 mb)
Winds: from the E (80 degrees) at 10 MPH (9 knots; 4.6 m/s)
Visibility: 6 or more miles (10+ km)
Ceiling: ceiling and visibility are OK
Clouds: unknown
Weather: no significant weather observed at this time

METAR text: YPPH 180200Z 10014KT CAVOK 25/10 Q1015 FM0330 VRB05KT CAVOK
Conditions at: YPPH (PERTH INTL/BELMO, AU) observed 0200 UTC 18 February 2019
Temperature: 25.0°C (77°F)
Dewpoint: 10.0°C (50°F) [RH = 39%]
Pressure (altimeter): 29.97 inches Hg (1015.0 mb)
Winds: from the E (100 degrees) at 16 MPH (14 knots; 7.2 m/s)
Visibility: 6 or more miles (10+ km)
Ceiling: ceiling and visibility are OK
Clouds: unknown
Weather: no significant weather observed at this time

METAR text: YPPH 180130Z 09014KT CAVOK 23/09 Q1015 FM0300 VRB05KT CAVOK
Conditions at: YPPH (PERTH INTL/BELMO, AU) observed 0130 UTC 18 February 2019
Temperature: 23.0°C (73°F)
Dewpoint: 9.0°C (48°F) [RH = 41%]
Pressure (altimeter): 29.97 inches Hg (1015.0 mb)
Winds: from the E (90 degrees) at 16 MPH (14 knots; 7.2 m/s)
Visibility: 6 or more miles (10+ km)
Ceiling: ceiling and visibility are OK
Clouds: unknown
Weather: no significant weather observed at this time

METAR text: YPPH 180100Z 08015KT CAVOK 22/09 Q1015 FM0300 VRB05KT CAVOK
Conditions at: YPPH (PERTH INTL/BELMO, AU) observed 0100 UTC 18 February 2019
Temperature: 22.0°C (72°F)
Dewpoint: 9.0°C (48°F) [RH = 43%]
Pressure (altimeter): 29.97 inches Hg (1015.0 mb)
Winds: from the E (80 degrees) at 17 MPH (15 knots; 7.7 m/s)
Visibility: 6 or more miles (10+ km)
Ceiling: ceiling and visibility are OK
Clouds: unknown
Weather: no significant weather observed at this time

METAR text: YPPH 180030Z 09014KT CAVOK 20/09 Q1015 FM0100 08010KT CAVOK FM0030 MOD TURB BLW 3000FT TILL 0100
Conditions at: YPPH (PERTH INTL/BELMO, AU) observed 0030 UTC 18 February 2019
Temperature: 20.0°C (68°F)
Dewpoint: 9.0°C (48°F) [RH = 49%]
Pressure (altimeter): 29.97 inches Hg (1015.0 mb)
Winds: from the E (90 degrees) at 16 MPH (14 knots; 7.2 m/s)
Visibility: 6 or more miles (10+ km)
Ceiling: ceiling and visibility are OK
Clouds: unknown
Weather: no significant weather observed at this time

METAR text: YPPH 180002Z 09015G26KT CAVOK 19/09 Q1015 FM0100 08010KT CAVOK FM0002 MOD TURB BLW 3000FT TILL 0100
Conditions at: YPPH (PERTH INTL/BELMO, AU) observed 0002 UTC 18 February 2019
Temperature: 19.0°C (66°F)
Dewpoint: 9.0°C (48°F) [RH = 52%]
Pressure (altimeter): 29.97 inches Hg (1015.0 mb)
Winds: from the E (90 degrees) at 17 MPH (15 knots; 7.7 m/s)
gusting to 30 MPH (26 knots; 13.4 m/s)
Visibility: 6 or more miles (10+ km)
Ceiling: ceiling and visibility are OK
Clouds: unknown
Weather: no significant weather observed at this time

METAR text: YPPH 172349Z 08015G25KT CAVOK 18/09 Q1015 FM0100 08010KT CAVOK FM2349 MOD TURB BLW 3000FT TILL 0100
Conditions at: YPPH (PERTH INTL/BELMO, AU) observed 2349 UTC 17 February 2019
Temperature: 18.0°C (64°F)
Dewpoint: 9.0°C (48°F) [RH = 56%]
Pressure (altimeter): 29.97 inches Hg (1015.0 mb)
Winds: from the E (80 degrees) at 17 MPH (15 knots; 7.7 m/s)
gusting to 29 MPH (25 knots; 12.9 m/s)
Visibility: 6 or more miles (10+ km)
Ceiling: ceiling and visibility are OK
Clouds: unknown
Weather: no significant weather observed at this time

METAR text: YPPH 172330Z 10013KT CAVOK 18/09 Q1015 FM2330 MOD TURB BLW 3000FT TILL 0100
Conditions at: YPPH (PERTH INTL/BELMO, AU) observed 2330 UTC 17 February 2019
Temperature: 18.0°C (64°F)
Dewpoint: 9.0°C (48°F) [RH = 56%]
Pressure (altimeter): 29.97 inches Hg (1015.0 mb)
Winds: from the E (100 degrees) at 15 MPH (13 knots; 6.7 m/s)
Visibility: 6 or more miles (10+ km)
Ceiling: ceiling and visibility are OK
Clouds: unknown
Weather: no significant weather observed at this time

METAR text: YPPH 172300Z 09011KT CAVOK 17/09 Q1015 FM2300 MOD TURB BLW 3000FT TILL 0100
Conditions at: YPPH (PERTH INTL/BELMO, AU) observed 2300 UTC 17 February 2019
Temperature: 17.0°C (63°F)
Dewpoint: 9.0°C (48°F) [RH = 59%]
Pressure (altimeter): 29.97 inches Hg (1015.0 mb)
Winds: from the E (90 degrees) at 13 MPH (11 knots; 5.7 m/s)
Visibility: 6 or more miles (10+ km)
Ceiling: ceiling and visibility are OK
Clouds: unknown
Weather: no significant weather observed at this time

METAR text: YPPH 172230Z 09013KT CAVOK 17/09 Q1014 FM2230 MOD TURB BLW 3000FT TILL 0100
Conditions at: YPPH (PERTH INTL/BELMO, AU) observed 2230 UTC 17 February 2019
Temperature: 17.0°C (63°F)
Dewpoint: 9.0°C (48°F) [RH = 59%]
Pressure (altimeter): 29.94 inches Hg (1014.0 mb)
Winds: from the E (90 degrees) at 15 MPH (13 knots; 6.7 m/s)
Visibility: 6 or more miles (10+ km)
Ceiling: ceiling and visibility are OK
Clouds: unknown
Weather: no significant weather observed at this time

METAR text: YPPH 172200Z 09014KT CAVOK 16/09 Q1014 FM2200 MOD TURB BLW 3000FT
Conditions at: YPPH (PERTH INTL/BELMO, AU) observed 2200 UTC 17 February 2019
Temperature: 16.0°C (61°F)
Dewpoint: 9.0°C (48°F) [RH = 63%]
Pressure (altimeter): 29.94 inches Hg (1014.0 mb)
Winds: from the E (90 degrees) at 16 MPH (14 knots; 7.2 m/s)
Visibility: 6 or more miles (10+ km)
Ceiling: ceiling and visibility are OK
Clouds: unknown
Weather: no significant weather observed at this time

METAR text: YPPH 172130Z 09009KT 050V110 CAVOK 16/09 Q1014 FM2130 MOD TURB BLW 3000FT
Conditions at: YPPH (PERTH INTL/BELMO, AU) observed 2130 UTC 17 February 2019
Temperature: 16.0°C (61°F)
Dewpoint: 9.0°C (48°F) [RH = 63%]
Pressure (altimeter): 29.94 inches Hg (1014.0 mb)
Winds: from the E (90 degrees) at 10 MPH (9 knots; 4.6 m/s)
Visibility: 6 or more miles (10+ km)
Ceiling: ceiling and visibility are OK
Clouds: unknown
Weather: no significant weather observed at this time

METAR text: YPPH 172100Z 08006KT 040V140 CAVOK 17/09 Q1014 FM2100 MOD TURB BLW 3000FT
Conditions at: YPPH (PERTH INTL/BELMO, AU) observed 2100 UTC 17 February 2019
Temperature: 17.0°C (63°F)
Dewpoint: 9.0°C (48°F) [RH = 59%]
Pressure (altimeter): 29.94 inches Hg (1014.0 mb)
Winds: from the E (80 degrees) at 7 MPH (6 knots; 3.1 m/s)
Visibility: 6 or more miles (10+ km)
Ceiling: ceiling and visibility are OK
Clouds: unknown
Weather: no significant weather observed at this time

METAR text: YPPH 172030Z 13005KT 080V150 CAVOK 17/09 Q1014 FM2030 MOD TURB BLW 3000FT
Conditions at: YPPH (PERTH INTL/BELMO, AU) observed 2030 UTC 17 February 2019
Temperature: 17.0°C (63°F)
Dewpoint: 9.0°C (48°F) [RH = 59%]
Pressure (altimeter): 29.94 inches Hg (1014.0 mb)
Winds: from the SE (130 degrees) at 6 MPH (5 knots; 2.6 m/s)
Visibility: 6 or more miles (10+ km)
Ceiling: ceiling and visibility are OK
Clouds: unknown
Weather: no significant weather observed at this time

METAR text: YPPH 172000Z 10010KT CAVOK 18/09 Q1013 FM2000 MOD TURB BLW 3000FT
Conditions at: YPPH (PERTH INTL/BELMO, AU) observed 2000 UTC 17 February 2019
Temperature: 18.0°C (64°F)
Dewpoint: 9.0°C (48°F) [RH = 56%]
Pressure (altimeter): 29.91 inches Hg (1013.0 mb)
Winds: from the E (100 degrees) at 12 MPH (10 knots; 5.1 m/s)
Visibility: 6 or more miles (10+ km)
Ceiling: ceiling and visibility are OK
Clouds: unknown
Weather: no significant weather observed at this time

METAR text: YPPH 171930Z 10013G23KT CAVOK 18/09 Q1013 FM1930 MOD TURB BLW 3000FT
Conditions at: YPPH (PERTH INTL/BELMO, AU) observed 1930 UTC 17 February 2019
Temperature: 18.0°C (64°F)
Dewpoint: 9.0°C (48°F) [RH = 56%]
Pressure (altimeter): 29.91 inches Hg (1013.0 mb)
Winds: from the E (100 degrees) at 15 MPH (13 knots; 6.7 m/s)
gusting to 26 MPH (23 knots; 11.8 m/s)
Visibility: 6 or more miles (10+ km)
Ceiling: ceiling and visibility are OK
Clouds: unknown
Weather: no significant weather observed at this time

METAR text: YPPH 171906Z 10015G25KT CAVOK 19/09 Q1013 FM1906 MOD TURB BLW 3000FT
Conditions at: YPPH (PERTH INTL/BELMO, AU) observed 1906 UTC 17 February 2019
Temperature: 19.0°C (66°F)
Dewpoint: 9.0°C (48°F) [RH = 52%]
Pressure (altimeter): 29.91 inches Hg (1013.0 mb)
Winds: from the E (100 degrees) at 17 MPH (15 knots; 7.7 m/s)
gusting to 29 MPH (25 knots; 12.9 m/s)
Visibility: 6 or more miles (10+ km)
Ceiling: ceiling and visibility are OK
Clouds: unknown
Weather: no significant weather observed at this time

METAR text: YPPH 171900Z 10017KT CAVOK 19/09 Q1013 FM1900 MOD TURB BLW 3000FT
Conditions at: YPPH (PERTH INTL/BELMO, AU) observed 1900 UTC 17 February 2019
Temperature: 19.0°C (66°F)
Dewpoint: 9.0°C (48°F) [RH = 52%]
Pressure (altimeter): 29.91 inches Hg (1013.0 mb)
Winds: from the E (100 degrees) at 20 MPH (17 knots; 8.7 m/s)
Visibility: 6 or more miles (10+ km)
Ceiling: ceiling and visibility are OK
Clouds: unknown
Weather: no significant weather observed at this time

METAR text: YPPH 171834Z 09020G30KT CAVOK 20/08 Q1013 FM1834 MOD TURB BLW 3000FT
Conditions at: YPPH (PERTH INTL/BELMO, AU) observed 1834 UTC 17 February 2019
Temperature: 20.0°C (68°F)
Dewpoint: 8.0°C (46°F) [RH = 46%]
Pressure (altimeter): 29.91 inches Hg (1013.0 mb)
Winds: from the E (90 degrees) at 23 MPH (20 knots; 10.3 m/s)
gusting to 34 MPH (30 knots; 15.4 m/s)
Visibility: 6 or more miles (10+ km)
Ceiling: ceiling and visibility are OK
Clouds: unknown
Weather: no significant weather observed at this time

METAR text: YPPH 171800Z 10018G29KT CAVOK 21/08 Q1013 FM1800 MOD TURB BLW 3000FT
Conditions at: YPPH (PERTH INTL/BELMO, AU) observed 1800 UTC 17 February 2019
Temperature: 21.0°C (70°F)
Dewpoint: 8.0°C (46°F) [RH = 43%]
Pressure (altimeter): 29.91 inches Hg (1013.0 mb)
Winds: from the E (100 degrees) at 21 MPH (18 knots; 9.3 m/s)
gusting to 33 MPH (29 knots; 14.9 m/s)
Visibility: 6 or more miles (10+ km)
Ceiling: ceiling and visibility are OK
Clouds: unknown
Weather: no significant weather observed at this time

METAR text: YPPH 171738Z 10019G29KT CAVOK 21/07 Q1013 FM1738 MOD TURB BLW 3000FT
Conditions at: YPPH (PERTH INTL/BELMO, AU) observed 1738 UTC 17 February 2019
Temperature: 21.0°C (70°F)
Dewpoint: 7.0°C (45°F) [RH = 40%]
Pressure (altimeter): 29.91 inches Hg (1013.0 mb)
Winds: from the E (100 degrees) at 22 MPH (19 knots; 9.8 m/s)
gusting to 33 MPH (29 knots; 14.9 m/s)
Visibility: 6 or more miles (10+ km)
Ceiling: ceiling and visibility are OK
Clouds: unknown
Weather: no significant weather observed at this time

Forecast for: YPPH (PERTH INTL/BELMO, AU)
Text: TAF YPPH 190510Z 1906/2012 24015KT CAVOK
Forecast period: 0600 to 1100 UTC 19 February 2019
Forecast type: FROM: standard forecast or significant change
Winds: from the WSW (240 degrees) at 17 MPH (15 knots; 7.7 m/s)
Visibility: 6 or more miles 10+ km)
Ceiling: unknown
Clouds: missing
Weather: NSW  (no significant weather)
Text: FM191100 21010KT CAVOK
Forecast period: 1100 to 1700 UTC 19 February 2019
Forecast type: FROM: standard forecast or significant change
Winds: from the SSW (210 degrees) at 12 MPH (10 knots; 5.1 m/s)
Visibility: 6 or more miles 10+ km)
Ceiling: unknown
Clouds: missing
Weather: NSW  (no significant weather)
Text: FM191700 10014G24KT CAVOK
Forecast period: 1700 UTC 19 February 2019 to 0000 UTC 20 February 2019
Forecast type: FROM: standard forecast or significant change
Winds: from the E (100 degrees) at 16 MPH (14 knots; 7.2 m/s)
gusting to 28 MPH (24 knots; 12.3 m/s)
Visibility: 6 or more miles 10+ km)
Ceiling: unknown
Clouds: missing
Weather: NSW  (no significant weather)
Text: BECMG 2000/2002 03008KT CAVOK
Forecast period: 0000 to 0500 UTC 20 February 2019
Forecast type: BECOMING: Conditions expected to become as follows by 0200 UTC 20 February 2019
Winds: from the NNE (30 degrees) at 9 MPH (8 knots; 4.1 m/s)
Visibility: 6 or more miles 10+ km)
Ceiling: unknown
Clouds: missing
Weather: NSW  (no significant weather)
Text: FM200500 25012KT CAVOK
Forecast period: 0500 to 1200 UTC 20 February 2019
Forecast type: FROM: standard forecast or significant change
Winds: from the WSW (250 degrees) at 14 MPH (12 knots; 6.2 m/s)
Visibility: 6 or more miles 10+ km)
Ceiling: unknown
Clouds: missing
Weather: NSW  (no significant weather)